createdAt,value
2022-11-03T00:00:36.809Z,11.05
2022-11-03T00:03:03.697Z,10.40
2022-11-03T00:05:48.994Z,9.32
2022-11-03T00:08:15.700Z,11.23
2022-11-03T00:10:42.240Z,11.00
2022-11-03T00:13:08.930Z,10.80
2022-11-03T00:15:35.535Z,9.80
2022-11-03T00:18:02.083Z,9.57
2022-11-03T00:20:28.656Z,11.45
2022-11-03T00:22:55.987Z,10.13
2022-11-03T00:25:22.567Z,8.80
2022-11-03T00:27:54.486Z,11.93
2022-11-03T00:30:21.042Z,11.23
2022-11-03T00:32:47.555Z,10.00
2022-11-03T00:35:14.172Z,10.90
2022-11-03T00:37:40.645Z,12.02
2022-11-03T00:40:07.844Z,10.82
2022-11-03T00:42:35.053Z,10.95
2022-11-03T00:45:01.593Z,10.93
2022-11-03T00:47:28.077Z,10.48
2022-11-03T00:49:54.572Z,11.77
2022-11-03T00:52:21.063Z,9.43
2022-11-03T00:54:51.330Z,10.13
2022-11-03T00:57:21.630Z,11.38
2022-11-03T00:59:48.090Z,10.32
2022-11-03T01:02:14.713Z,8.18
2022-11-03T01:04:59.720Z,9.45
2022-11-03T01:07:26.226Z,8.95
2022-11-03T01:09:52.735Z,8.30
2022-11-03T01:12:19.474Z,8.10
2022-11-03T01:14:53.051Z,8.38
2022-11-03T01:17:24.623Z,9.00
2022-11-03T01:19:51.166Z,9.50
2022-11-03T01:22:18.373Z,7.53
2022-11-03T01:24:45.811Z,8.02
2022-11-03T01:27:16.235Z,8.73
2022-11-03T01:29:43.243Z,9.25
2022-11-03T01:32:10.194Z,7.88
2022-11-03T01:34:37.123Z,9.25
2022-11-03T01:37:03.968Z,7.50
2022-11-03T01:39:30.494Z,8.73
2022-11-03T01:41:57.116Z,7.63
2022-11-03T01:44:30.811Z,7.38
2022-11-03T01:47:03.379Z,7.30
2022-11-03T01:49:40.134Z,7.90
2022-11-03T01:52:11.042Z,7.28
2022-11-03T01:54:38.911Z,7.65
2022-11-03T01:57:10.391Z,7.55
2022-11-03T01:59:37.087Z,7.78
2022-11-03T02:02:03.630Z,7.03
2022-11-03T02:04:32.739Z,8.00
2022-11-03T02:07:15.716Z,8.50
2022-11-03T02:09:42.292Z,7.25
2022-11-03T02:12:09.119Z,7.97
2022-11-03T02:14:39.192Z,7.65
2022-11-03T02:17:08.715Z,7.28
2022-11-03T02:19:56.155Z,8.10
2022-11-03T02:22:29.568Z,7.20
2022-11-03T02:25:16.091Z,7.70
2022-11-03T02:27:43.093Z,8.73
2022-11-03T02:30:10.479Z,7.90
2022-11-03T02:33:01.159Z,6.82
2022-11-03T02:35:32.875Z,7.10
2022-11-03T02:38:01.344Z,8.25
2022-11-03T02:40:35.073Z,6.38
2022-11-03T02:43:02.168Z,7.93
2022-11-03T02:45:29.218Z,7.40
2022-11-03T02:47:58.719Z,7.50
2022-11-03T02:50:29.977Z,9.32
2022-11-03T02:52:56.660Z,7.38
2022-11-03T02:55:33.148Z,8.45
2022-11-03T02:58:02.458Z,7.97
2022-11-03T03:00:31.319Z,6.97
2022-11-03T03:03:05.572Z,8.38
2022-11-03T03:05:34.188Z,7.15
2022-11-03T03:08:11.987Z,8.55
2022-11-03T03:10:43.989Z,6.25
2022-11-03T03:13:14.053Z,6.78
2022-11-03T03:15:46.600Z,8.07
2022-11-03T03:18:21.242Z,7.65
2022-11-03T03:20:56.092Z,8.32
2022-11-03T03:23:29.959Z,8.80
2022-11-03T03:26:10.389Z,8.57
2022-11-03T03:28:39.917Z,8.20
2022-11-03T03:31:09.546Z,8.65
2022-11-03T03:33:38.131Z,7.88
2022-11-03T03:36:10.617Z,8.77
2022-11-03T03:38:40.388Z,9.07
2022-11-03T03:41:10.884Z,7.93
2022-11-03T03:43:37.807Z,6.10
2022-11-03T03:46:08.176Z,7.22
2022-11-03T03:48:34.756Z,7.95
2022-11-03T03:51:02.056Z,8.95
2022-11-03T03:53:29.895Z,8.02
2022-11-03T03:55:58.262Z,7.68
2022-11-03T03:58:24.901Z,7.45
2022-11-03T04:00:51.480Z,7.65
2022-11-03T04:03:20.422Z,8.65
2022-11-03T04:05:47.492Z,8.52
2022-11-03T04:08:15.455Z,8.52
2022-11-03T04:11:01.923Z,7.28
2022-11-03T04:13:47.222Z,7.85
2022-11-03T04:16:32.316Z,9.32
2022-11-03T04:19:17.188Z,8.63
2022-11-03T04:22:02.043Z,7.43
2022-11-03T04:24:28.535Z,8.05
2022-11-03T04:26:58.011Z,7.97
2022-11-03T04:29:24.761Z,8.77
2022-11-03T04:31:51.215Z,8.75
2022-11-03T04:34:17.699Z,9.55
2022-11-03T04:36:44.163Z,9.13
2022-11-03T04:39:17.355Z,8.40
2022-11-03T04:41:44.350Z,9.40
2022-11-03T04:44:16.632Z,8.27
2022-11-03T04:46:43.992Z,8.77
2022-11-03T04:49:21.801Z,9.27
2022-11-03T04:51:48.751Z,7.88
2022-11-03T04:54:23.438Z,8.95
2022-11-03T04:56:49.940Z,9.18
2022-11-03T04:59:16.759Z,10.07
2022-11-03T05:01:45.346Z,9.18
2022-11-03T05:04:13.844Z,9.63
2022-11-03T05:06:42.054Z,11.77
2022-11-03T05:09:15.724Z,8.68
2022-11-03T05:11:45.399Z,8.50
2022-11-03T05:14:31.358Z,11.38
2022-11-03T05:16:58.742Z,10.63
2022-11-03T05:19:37.805Z,10.93
2022-11-03T05:22:05.293Z,11.50
2022-11-03T05:24:32.887Z,10.07
2022-11-03T05:26:59.817Z,8.95
2022-11-03T05:29:38.513Z,8.50
2022-11-03T05:32:12.049Z,8.40
2022-11-03T05:34:43.700Z,8.93
2022-11-03T05:37:26.563Z,11.60
2022-11-03T05:40:22.584Z,9.50
2022-11-03T05:42:52.616Z,8.30
2022-11-03T05:45:23.262Z,10.43
2022-11-03T05:47:51.328Z,8.65
2022-11-03T05:50:21.862Z,8.60
2022-11-03T05:52:50.543Z,8.25
2022-11-03T05:55:26.975Z,9.98
2022-11-03T05:57:59.816Z,9.23
2022-11-03T06:00:32.370Z,10.63
2022-11-03T06:03:00.142Z,10.25
2022-11-03T06:05:27.390Z,8.35
2022-11-03T06:07:55.837Z,8.52
2022-11-03T06:10:34.532Z,9.18
2022-11-03T06:13:30.268Z,9.00
2022-11-03T06:15:59.299Z,9.40
2022-11-03T06:18:30.777Z,8.27
2022-11-03T06:20:59.996Z,8.32
2022-11-03T06:23:26.608Z,9.13
2022-11-03T06:25:54.489Z,8.68
2022-11-03T06:28:23.728Z,9.43
2022-11-03T06:30:51.367Z,9.98
2022-11-03T06:33:26.059Z,9.68
2022-11-03T06:35:55.961Z,8.85
2022-11-03T06:38:25.510Z,9.80
2022-11-03T06:40:52.992Z,8.18
2022-11-03T06:43:24.742Z,9.00
2022-11-03T06:45:56.641Z,8.23
2022-11-03T06:48:28.404Z,10.48
2022-11-03T06:50:56.600Z,10.77
2022-11-03T06:53:26.719Z,9.38
2022-11-03T06:55:53.798Z,8.50
2022-11-03T06:58:24.555Z,9.50
2022-11-03T07:00:52.067Z,8.48
2022-11-03T07:03:35.007Z,9.23
2022-11-03T07:06:35.521Z,8.63
2022-11-03T07:09:04.883Z,9.73
2022-11-03T07:11:35.869Z,8.60
2022-11-03T07:14:17.145Z,9.05
2022-11-03T07:16:45.582Z,9.80
2022-11-03T07:19:19.242Z,10.43
2022-11-03T07:21:46.745Z,11.77
2022-11-03T07:24:27.419Z,9.93
2022-11-03T07:27:15.020Z,9.98
2022-11-03T07:29:42.201Z,10.63
2022-11-03T07:32:32.680Z,10.60
2022-11-03T07:35:05.066Z,9.30
2022-11-03T07:37:31.806Z,9.10
2022-11-03T07:39:58.681Z,10.38
2022-11-03T07:42:26.175Z,9.30
2022-11-03T07:44:55.851Z,9.77
2022-11-03T07:47:25.718Z,10.15
2022-11-03T07:49:52.458Z,8.38
2022-11-03T07:52:24.177Z,10.38
2022-11-03T07:54:52.166Z,9.20
2022-11-03T07:57:25.227Z,9.98
2022-11-03T08:00:08.935Z,11.02
2022-11-03T08:02:44.898Z,8.70
2022-11-03T08:05:11.513Z,9.27
2022-11-03T08:07:38.105Z,9.43
2022-11-03T08:10:06.755Z,9.55
2022-11-03T08:12:33.347Z,9.43
2022-11-03T08:15:00.389Z,10.23
2022-11-03T08:17:26.930Z,8.27
2022-11-03T08:19:53.398Z,8.43
2022-11-03T08:22:19.907Z,9.18
2022-11-03T08:24:46.398Z,9.15
2022-11-03T08:27:12.901Z,8.57
2022-11-03T08:29:39.542Z,9.18
2022-11-03T08:32:06.120Z,10.10
2022-11-03T08:34:32.911Z,9.25
2022-11-03T08:36:59.429Z,9.45
2022-11-03T08:39:25.893Z,10.73
2022-11-03T08:41:52.368Z,9.27
2022-11-03T08:44:18.842Z,8.18
2022-11-03T08:46:45.335Z,8.98
2022-11-03T08:49:11.776Z,9.27
2022-11-03T08:51:43.937Z,8.93
2022-11-03T08:54:11.015Z,9.60
2022-11-03T08:56:37.542Z,8.68
2022-11-03T08:59:04.020Z,9.32
2022-11-03T09:01:30.558Z,11.23
2022-11-03T09:03:57.089Z,11.05
2022-11-03T09:06:23.688Z,12.10
2022-11-03T09:11:36.809Z,13.27
2022-11-03T09:14:03.913Z,12.18
2022-11-03T09:16:30.416Z,10.05
2022-11-03T09:18:56.927Z,12.35
2022-11-03T09:21:23.512Z,13.70
2022-11-03T09:23:50.175Z,13.75
2022-11-03T09:26:16.828Z,15.70
2022-11-03T09:28:43.460Z,13.63
2022-11-03T09:31:09.992Z,13.50
2022-11-03T09:33:36.942Z,11.68
2022-11-03T09:36:03.548Z,12.75
2022-11-03T09:38:30.054Z,11.73
2022-11-03T09:40:56.661Z,11.90
2022-11-03T09:43:23.328Z,13.77
2022-11-03T09:45:49.922Z,13.07
2022-11-03T09:48:16.536Z,12.65
2022-11-03T09:50:43.230Z,13.00
2022-11-03T09:53:11.702Z,13.75
2022-11-03T09:58:13.354Z,10.90
2022-11-03T10:00:39.998Z,11.43
2022-11-03T10:03:09.629Z,10.52
2022-11-03T10:05:36.375Z,10.55
2022-11-03T10:08:07.134Z,10.88
2022-11-03T10:10:34.381Z,9.77
2022-11-03T10:13:01.514Z,9.98
2022-11-03T10:15:28.352Z,10.82
2022-11-03T10:17:55.574Z,9.85
2022-11-03T10:20:23.015Z,11.38
2022-11-03T10:22:53.979Z,11.43
2022-11-03T10:25:37.208Z,11.30
2022-11-03T10:28:20.681Z,12.38
2022-11-03T10:31:13.941Z,10.82
2022-11-03T10:33:42.427Z,10.18
2022-11-03T10:38:44.976Z,10.82
2022-11-03T10:41:17.229Z,11.35
2022-11-03T10:43:45.368Z,10.57
2022-11-03T10:46:44.533Z,10.68
2022-11-03T10:49:10.639Z,10.10
2022-11-03T10:51:37.453Z,10.48
2022-11-03T10:54:05.466Z,10.90
2022-11-03T10:56:32.760Z,9.63
2022-11-03T10:59:00.960Z,9.82
2022-11-03T11:01:27.611Z,9.43
2022-11-03T11:03:55.236Z,11.40
2022-11-03T11:06:26.582Z,9.48
2022-11-03T11:08:59.937Z,12.32
2022-11-03T11:11:27.283Z,10.48
2022-11-03T11:14:28.175Z,10.18
2022-11-03T11:16:58.855Z,10.25
2022-11-03T11:19:27.392Z,10.95
2022-11-03T11:21:53.788Z,9.75
2022-11-03T11:24:43.424Z,8.70
2022-11-03T11:27:34.550Z,7.78
2022-11-03T11:30:04.849Z,8.68
2022-11-03T11:32:55.901Z,8.43
2022-11-03T11:35:22.353Z,9.38
2022-11-03T11:37:48.935Z,7.93
2022-11-03T11:40:24.472Z,8.30
2022-11-03T11:43:06.615Z,9.98
2022-11-03T11:46:11.164Z,8.45
2022-11-03T11:48:37.687Z,7.32
2022-11-03T11:51:04.239Z,8.52
2022-11-03T11:53:38.972Z,7.97
2022-11-03T11:56:05.803Z,8.45
2022-11-03T11:58:42.255Z,9.20
2022-11-03T12:01:23.561Z,8.45
2022-11-03T12:03:52.102Z,8.75
2022-11-03T12:06:38.208Z,7.43
2022-11-03T12:09:09.558Z,7.45
2022-11-03T12:11:57.183Z,7.13
2022-11-03T12:14:28.672Z,7.47
2022-11-03T12:16:56.292Z,8.30
2022-11-03T12:19:44.971Z,7.40
2022-11-03T12:22:23.759Z,7.47
2022-11-03T12:24:53.399Z,7.95
2022-11-03T12:27:25.939Z,7.32
2022-11-03T12:29:56.863Z,7.32
2022-11-03T12:32:33.849Z,8.43
2022-11-03T12:35:02.649Z,6.50
2022-11-03T12:37:29.195Z,9.75
2022-11-03T12:39:55.718Z,7.25
2022-11-03T12:42:24.794Z,7.65
2022-11-03T12:44:51.809Z,7.63
2022-11-03T12:47:18.282Z,8.77
2022-11-03T12:49:44.887Z,7.50
2022-11-03T12:52:11.415Z,9.02
2022-11-03T12:54:38.120Z,7.22
2022-11-03T12:57:04.587Z,7.97
2022-11-03T12:59:31.097Z,7.90
2022-11-03T13:01:57.679Z,8.95
2022-11-03T13:04:24.348Z,7.30
2022-11-03T13:06:50.871Z,8.35
2022-11-03T13:09:17.457Z,7.88
2022-11-03T13:12:02.564Z,7.28
2022-11-03T13:14:29.128Z,7.68
2022-11-03T13:16:55.603Z,9.10
2022-11-03T13:19:22.596Z,8.82
2022-11-03T13:21:49.068Z,9.93
2022-11-03T13:24:15.638Z,9.18
2022-11-03T13:26:42.132Z,9.20
2022-11-03T13:29:08.651Z,10.73
2022-11-03T13:31:35.660Z,10.02
2022-11-03T13:34:02.275Z,8.32
2022-11-03T13:36:28.836Z,9.13
2022-11-03T13:38:55.394Z,7.95
2022-11-03T13:41:21.850Z,9.60
2022-11-03T13:43:48.373Z,8.05
2022-11-03T13:46:14.825Z,10.25
2022-11-03T13:51:27.980Z,8.80
2022-11-03T13:59:28.280Z,8.93
2022-11-03T14:04:43.069Z,8.65
2022-11-03T14:07:10.457Z,9.45
2022-11-03T14:12:22.086Z,8.40
2022-11-03T14:14:48.743Z,9.80
2022-11-03T14:17:15.281Z,9.98
2022-11-03T14:19:47.320Z,8.32
2022-11-03T14:22:17.281Z,8.23
2022-11-03T14:24:44.412Z,9.50
2022-11-03T14:27:10.957Z,8.35
2022-11-03T14:29:39.171Z,9.50
2022-11-03T14:32:06.314Z,8.40
2022-11-03T14:34:33.099Z,8.00
2022-11-03T14:36:59.763Z,9.18
2022-11-03T14:39:26.744Z,7.53
2022-11-03T14:42:05.665Z,7.90
2022-11-03T14:44:35.998Z,8.05
2022-11-03T14:47:03.988Z,7.93
2022-11-03T14:49:31.301Z,7.95
2022-11-03T14:51:59.617Z,8.80
2022-11-03T14:54:26.239Z,8.30
2022-11-03T14:56:53.752Z,8.38
2022-11-03T14:59:21.082Z,8.55
2022-11-03T15:01:48.707Z,8.60
2022-11-03T15:04:15.328Z,8.43
2022-11-03T15:06:41.914Z,7.40
2022-11-03T15:11:41.581Z,8.10
2022-11-03T15:14:08.599Z,8.73
2022-11-03T15:16:36.152Z,6.97
2022-11-03T15:19:06.012Z,9.18
2022-11-03T15:21:33.338Z,8.15
2022-11-03T15:26:46.406Z,7.50
2022-11-03T15:29:12.947Z,9.18
2022-11-03T15:31:44.473Z,8.60
2022-11-03T15:34:14.020Z,7.30
2022-11-03T15:36:40.502Z,8.25
2022-11-03T15:39:07.016Z,7.70
2022-11-03T15:41:33.484Z,9.45
2022-11-03T15:43:59.987Z,7.28
2022-11-03T15:46:26.692Z,7.05
2022-11-03T15:48:54.430Z,7.57
2022-11-03T15:51:20.982Z,7.30
2022-11-03T15:53:47.464Z,7.50
2022-11-03T15:56:14.179Z,7.30
2022-11-03T15:58:40.759Z,8.90
2022-11-03T16:01:07.403Z,9.57
2022-11-03T16:03:34.084Z,9.98
2022-11-03T16:06:00.672Z,6.72
2022-11-03T16:08:27.329Z,7.65
2022-11-03T16:10:57.984Z,8.07
2022-11-03T16:13:25.492Z,7.63
2022-11-03T16:15:54.268Z,8.13
2022-11-03T16:18:20.778Z,8.35
2022-11-03T16:20:47.232Z,8.25
2022-11-03T16:23:13.833Z,9.68
2022-11-03T16:25:40.373Z,9.35
2022-11-03T16:28:07.101Z,9.48
2022-11-03T16:30:35.221Z,8.90
2022-11-03T16:33:01.761Z,8.55
2022-11-03T16:35:29.570Z,8.23
2022-11-03T16:37:56.304Z,8.95
2022-11-03T16:40:22.820Z,7.15
2022-11-03T16:42:49.340Z,10.35
2022-11-03T16:45:22.761Z,10.68
2022-11-03T16:47:50.149Z,10.07
2022-11-03T16:50:17.252Z,9.00
2022-11-03T16:52:44.480Z,7.65
2022-11-03T16:55:11.851Z,9.48
2022-11-03T16:57:39.291Z,9.95
2022-11-03T17:00:08.184Z,10.52
2022-11-03T17:02:34.671Z,8.13
2022-11-03T17:05:01.209Z,8.73
2022-11-03T17:07:27.684Z,9.98
2022-11-03T17:09:54.215Z,8.75
2022-11-03T17:12:20.685Z,11.20
2022-11-03T17:14:50.077Z,9.13
2022-11-03T17:17:19.159Z,9.02
2022-11-03T17:19:45.787Z,9.45
2022-11-03T17:22:12.282Z,9.00
2022-11-03T17:24:38.995Z,9.50
2022-11-03T17:27:14.754Z,9.90
2022-11-03T17:30:01.827Z,9.35
2022-11-03T17:32:29.592Z,10.07
2022-11-03T17:34:57.556Z,8.55
2022-11-03T17:37:25.138Z,9.18
2022-11-03T17:39:55.932Z,10.13
2022-11-03T17:42:27.328Z,9.23
2022-11-03T17:44:56.248Z,9.15
2022-11-03T17:47:23.591Z,8.98
2022-11-03T17:49:50.105Z,9.40
2022-11-03T17:52:28.644Z,9.57
2022-11-03T17:54:59.514Z,9.18
2022-11-03T17:57:26.552Z,8.20
2022-11-03T17:59:54.934Z,9.50
2022-11-03T18:02:26.257Z,11.52
2022-11-03T18:04:57.899Z,9.05
2022-11-03T18:07:26.400Z,10.02
2022-11-03T18:09:53.333Z,9.90
2022-11-03T18:12:43.710Z,9.93
2022-11-03T18:15:18.964Z,9.10
2022-11-03T18:17:45.711Z,10.50
2022-11-03T18:20:14.529Z,12.30
2022-11-03T18:22:41.003Z,11.00
2022-11-03T18:25:14.788Z,10.98
2022-11-03T18:27:41.796Z,10.95
2022-11-03T18:30:09.471Z,9.18
2022-11-03T18:32:36.732Z,10.40
2022-11-03T18:35:03.825Z,8.80
2022-11-03T18:37:31.669Z,10.70
2022-11-03T18:39:58.299Z,9.80
2022-11-03T18:42:24.784Z,7.43
2022-11-03T18:44:51.511Z,8.48
2022-11-03T18:47:18.028Z,7.03
2022-11-03T18:49:44.540Z,8.70
2022-11-03T18:52:13.787Z,6.38
2022-11-03T18:54:45.005Z,6.13
2022-11-03T18:57:12.658Z,7.18
2022-11-03T18:59:44.428Z,5.55
2022-11-03T19:02:28.173Z,4.57
2022-11-03T19:04:54.720Z,4.80
2022-11-03T19:07:31.813Z,6.50
2022-11-03T19:09:58.831Z,5.25
2022-11-03T19:12:25.330Z,4.63
2022-11-03T19:14:51.979Z,5.38
2022-11-03T19:17:24.279Z,4.28
2022-11-03T19:19:52.516Z,4.40
2022-11-03T19:22:21.004Z,4.07
2022-11-03T19:24:47.803Z,5.03
2022-11-03T19:27:20.172Z,3.75
2022-11-03T19:29:47.497Z,3.75
2022-11-03T19:32:30.638Z,5.05
2022-11-03T19:35:00.037Z,3.97
2022-11-03T19:37:31.004Z,4.78
2022-11-03T19:40:00.894Z,4.63
2022-11-03T19:42:27.421Z,3.13
2022-11-03T19:45:05.853Z,4.40
2022-11-03T19:50:41.099Z,2.40
2022-11-03T19:53:07.764Z,3.33
2022-11-03T19:55:39.206Z,2.15
2022-11-03T19:58:15.325Z,2.22
2022-11-03T20:00:42.852Z,2.35
2022-11-03T20:03:09.680Z,2.60
2022-11-03T20:05:36.381Z,2.47
2022-11-03T20:08:06.541Z,2.47
2022-11-03T20:10:35.918Z,2.70
2022-11-03T20:13:03.549Z,2.75
2022-11-03T20:15:30.076Z,2.58
2022-11-03T20:17:56.545Z,2.97
2022-11-03T20:20:26.838Z,3.25
2022-11-03T20:22:57.486Z,2.58
2022-11-03T20:25:29.592Z,3.08
2022-11-03T20:27:57.572Z,3.13
2022-11-03T20:30:28.889Z,2.53
2022-11-03T20:32:55.465Z,2.53
2022-11-03T20:35:24.930Z,2.35
2022-11-03T20:37:55.051Z,3.58
2022-11-03T20:40:23.396Z,3.08
2022-11-03T20:42:51.892Z,2.83
2022-11-03T20:45:20.376Z,2.92
2022-11-03T20:47:48.251Z,2.63
2022-11-03T20:50:17.006Z,3.17
2022-11-03T20:52:44.203Z,3.63
2022-11-03T20:55:24.577Z,2.45
2022-11-03T20:57:53.169Z,2.97
2022-11-03T21:02:48.970Z,2.80
2022-11-03T21:05:29.162Z,2.10
2022-11-03T21:07:55.786Z,2.80
2022-11-03T21:10:23.609Z,2.70
2022-11-03T21:12:50.145Z,3.03
2022-11-03T21:15:36.904Z,2.92
2022-11-03T21:18:28.976Z,3.47
2022-11-03T21:20:55.874Z,3.55
2022-11-03T21:23:27.232Z,3.03
2022-11-03T21:25:56.879Z,2.63
2022-11-03T21:28:24.019Z,2.88
2022-11-03T21:30:53.235Z,3.88
2022-11-03T21:33:20.867Z,3.25
2022-11-03T21:35:48.503Z,3.72
2022-11-03T21:38:15.752Z,3.78
2022-11-03T21:40:53.668Z,3.95
2022-11-03T21:43:41.253Z,3.28
2022-11-03T21:46:09.659Z,3.10
2022-11-03T21:49:00.188Z,3.38
2022-11-03T21:51:26.721Z,3.80
2022-11-03T21:53:53.192Z,3.50
2022-11-03T21:56:19.772Z,3.03
2022-11-03T21:58:46.282Z,3.53
2022-11-03T22:01:13.006Z,3.30
2022-11-03T22:03:39.766Z,3.35
2022-11-03T22:06:10.089Z,2.95
2022-11-03T22:08:37.369Z,3.53
2022-11-03T22:11:23.448Z,3.72
2022-11-03T22:13:56.434Z,3.25
2022-11-03T22:16:50.323Z,3.20
2022-11-03T22:19:40.212Z,3.97
2022-11-03T22:22:30.552Z,2.78
2022-11-03T22:25:15.933Z,2.78
2022-11-03T22:27:42.640Z,3.45
2022-11-03T22:30:28.136Z,3.58
2022-11-03T22:32:56.576Z,3.70
2022-11-03T22:35:43.271Z,3.70
2022-11-03T22:38:14.935Z,3.10
2022-11-03T22:41:01.214Z,3.05
2022-11-03T22:43:47.027Z,2.45
2022-11-03T22:46:15.065Z,2.60
2022-11-03T22:48:41.744Z,2.60
2022-11-03T22:51:10.916Z,2.08
2022-11-03T22:53:56.423Z,2.10
2022-11-03T22:56:24.650Z,2.60
2022-11-03T22:58:51.578Z,2.65
2022-11-03T23:01:20.419Z,2.78
2022-11-03T23:03:47.678Z,3.05
2022-11-03T23:06:20.049Z,3.50
2022-11-03T23:08:47.809Z,3.00
2022-11-03T23:11:26.096Z,2.90
2022-11-03T23:13:53.472Z,3.20
2022-11-03T23:16:22.533Z,2.05
2022-11-03T23:19:08.117Z,2.88
2022-11-03T23:21:35.485Z,3.15
2022-11-03T23:24:20.732Z,2.67
2022-11-03T23:26:47.577Z,3.10
2022-11-03T23:29:14.565Z,2.15
2022-11-03T23:31:42.845Z,2.83
2022-11-03T23:34:10.619Z,2.20
2022-11-03T23:36:37.161Z,2.67
2022-11-03T23:39:04.113Z,2.67
2022-11-03T23:41:30.839Z,2.20
2022-11-03T23:43:57.644Z,2.15
2022-11-03T23:46:45.081Z,2.30
2022-11-03T23:49:12.147Z,2.60
2022-11-03T23:51:39.183Z,2.10
2022-11-03T23:54:07.366Z,2.90
2022-11-03T23:56:55.155Z,2.67
2022-11-03T23:59:22.175Z,1.40
